createdAt,value
2018-07-25T00:00:25.978Z,13.80
2018-07-25T00:02:30.616Z,14.50
2018-07-25T00:04:35.271Z,14.43
2018-07-25T00:06:39.940Z,14.43
2018-07-25T00:08:44.808Z,15.37
2018-07-25T00:10:54.211Z,16.27
2018-07-25T00:13:02.822Z,16.60
2018-07-25T00:15:10.532Z,16.33
2018-07-25T00:17:18.987Z,15.97
2018-07-25T00:19:28.687Z,16.27
2018-07-25T00:21:37.164Z,15.00
2018-07-25T00:23:42.274Z,16.00
2018-07-25T00:25:47.516Z,15.57
2018-07-25T00:27:52.265Z,15.20
2018-07-25T00:29:57.144Z,16.13
2018-07-25T00:32:08.702Z,16.17
2018-07-25T00:34:16.412Z,16.80
2018-07-25T00:36:23.331Z,16.17
2018-07-25T00:38:29.229Z,15.33
2018-07-25T00:40:34.242Z,16.03
2018-07-25T00:42:38.824Z,16.67
2018-07-25T00:44:44.541Z,16.70
2018-07-25T00:46:50.142Z,15.03
2018-07-25T00:48:55.804Z,14.80
2018-07-25T00:51:13.879Z,14.97
2018-07-25T00:53:26.959Z,15.67
2018-07-25T00:55:32.663Z,16.47
2018-07-25T00:57:38.497Z,15.60
2018-07-25T00:59:43.000Z,16.70
2018-07-25T01:01:56.168Z,16.30
2018-07-25T01:06:11.071Z,17.10
2018-07-25T01:08:15.765Z,14.80
2018-07-25T01:10:29.037Z,16.87
2018-07-25T01:12:51.383Z,15.00
2018-07-25T01:16:36.323Z,16.63
2018-07-25T01:18:48.270Z,16.70
2018-07-25T01:20:53.848Z,15.97
2018-07-25T01:22:58.679Z,16.40
2018-07-25T01:25:03.551Z,17.47
2018-07-25T01:29:28.706Z,16.20
2018-07-25T01:31:33.391Z,16.70
2018-07-25T01:33:38.050Z,15.97
2018-07-25T01:35:42.621Z,17.57
2018-07-25T01:37:47.471Z,17.73
2018-07-25T01:39:52.076Z,18.20
2018-07-25T01:41:56.741Z,17.10
2018-07-25T01:44:01.987Z,16.20
2018-07-25T01:46:07.853Z,16.90
2018-07-25T01:48:12.949Z,15.77
2018-07-25T01:50:17.663Z,16.57
2018-07-25T01:52:22.291Z,16.27
2018-07-25T01:54:26.989Z,16.63
2018-07-25T01:56:31.769Z,15.43
2018-07-25T01:58:38.729Z,15.77
2018-07-25T02:00:50.979Z,14.80
2018-07-25T02:02:55.573Z,15.33
2018-07-25T02:05:01.235Z,16.70
2018-07-25T02:07:05.494Z,15.50
2018-07-25T02:09:12.373Z,16.03
2018-07-25T02:11:16.939Z,16.83
2018-07-25T02:13:21.610Z,16.40
2018-07-25T02:15:29.334Z,16.67
2018-07-25T02:17:41.596Z,17.27
2018-07-25T02:19:46.115Z,16.50
2018-07-25T02:21:53.848Z,15.63
2018-07-25T02:23:58.551Z,16.53
2018-07-25T02:26:07.042Z,16.70
2018-07-25T02:28:12.915Z,16.37
2018-07-25T02:30:19.630Z,17.23
2018-07-25T02:32:24.635Z,16.30
2018-07-25T02:34:30.920Z,15.83
2018-07-25T02:36:36.910Z,16.93
2018-07-25T02:38:41.517Z,16.40
2018-07-25T02:40:46.104Z,16.70
2018-07-25T02:42:54.154Z,17.93
2018-07-25T02:45:00.296Z,16.70
2018-07-25T02:47:05.947Z,17.17
2018-07-25T02:49:10.747Z,17.07
2018-07-25T02:51:17.950Z,16.97
2018-07-25T02:53:43.472Z,17.70
2018-07-25T02:55:48.119Z,18.27
2018-07-25T02:57:52.868Z,18.20
2018-07-25T02:59:57.405Z,18.03
2018-07-25T03:02:06.399Z,18.20
2018-07-25T03:04:11.077Z,18.50
2018-07-25T03:06:16.007Z,18.03
2018-07-25T03:08:20.623Z,18.87
2018-07-25T03:10:34.585Z,17.30
2018-07-25T03:12:39.310Z,16.90
2018-07-25T03:14:43.893Z,16.57
2018-07-25T03:16:48.532Z,16.50
2018-07-25T03:18:58.486Z,16.83
2018-07-25T03:21:03.265Z,16.87
2018-07-25T03:23:08.517Z,17.40
2018-07-25T03:25:13.039Z,17.77
2018-07-25T03:27:19.486Z,18.00
2018-07-25T03:29:24.137Z,17.20
2018-07-25T03:31:29.212Z,17.40
2018-07-25T03:33:33.888Z,17.67
2018-07-25T03:35:38.930Z,17.53
2018-07-25T03:37:44.605Z,16.97
2018-07-25T03:39:50.207Z,15.97
2018-07-25T03:41:57.592Z,18.10
2018-07-25T03:44:02.295Z,16.13
2018-07-25T03:46:11.212Z,17.50
2018-07-25T03:48:16.937Z,16.70
2018-07-25T03:50:21.703Z,16.33
2018-07-25T03:52:27.000Z,17.37
2018-07-25T03:54:34.110Z,17.70
2018-07-25T03:56:40.351Z,17.77
2018-07-25T03:58:45.114Z,18.03
2018-07-25T04:00:49.637Z,19.00
2018-07-25T04:03:02.655Z,18.13
2018-07-25T04:05:11.173Z,19.60
2018-07-25T04:07:16.742Z,18.83
2018-07-25T04:09:23.407Z,17.60
2018-07-25T04:11:27.760Z,17.67
2018-07-25T04:13:32.466Z,18.80
2018-07-25T04:15:37.054Z,18.80
2018-07-25T04:17:44.628Z,18.50
2018-07-25T04:19:49.184Z,18.90
2018-07-25T04:22:04.003Z,18.57
2018-07-25T04:24:09.011Z,17.90
2018-07-25T04:26:13.721Z,19.60
2018-07-25T04:28:18.296Z,17.57
2018-07-25T04:30:26.685Z,19.10
2018-07-25T04:32:32.467Z,17.47
2018-07-25T04:34:41.303Z,16.57
2018-07-25T04:36:45.812Z,17.43
2018-07-25T04:38:51.790Z,17.00
2018-07-25T04:40:56.313Z,17.00
2018-07-25T04:43:04.771Z,17.93
2018-07-25T04:45:10.800Z,16.60
2018-07-25T04:47:17.549Z,16.97
2018-07-25T04:49:23.646Z,18.17
2018-07-25T04:51:30.204Z,19.13
2018-07-25T04:53:34.879Z,18.87
2018-07-25T04:55:41.514Z,19.23
2018-07-25T04:57:47.272Z,18.20
2018-07-25T04:59:54.852Z,19.50
2018-07-25T05:01:59.449Z,17.50
2018-07-25T05:04:10.881Z,18.30
2018-07-25T05:06:17.708Z,17.90
2018-07-25T05:08:22.432Z,19.00
2018-07-25T05:10:27.048Z,19.37
2018-07-25T05:12:37.307Z,19.50
2018-07-25T05:14:41.897Z,17.60
2018-07-25T05:16:46.577Z,19.67
2018-07-25T05:18:54.467Z,19.33
2018-07-25T05:21:00.206Z,19.47
2018-07-25T05:23:07.013Z,21.37
2018-07-25T05:25:11.618Z,19.03
2018-07-25T05:27:17.209Z,18.10
2018-07-25T05:29:28.311Z,18.80
2018-07-25T05:31:33.007Z,17.13
2018-07-25T05:33:40.045Z,17.47
2018-07-25T05:35:44.622Z,18.80
2018-07-25T05:38:01.957Z,18.53
2018-07-25T05:40:06.639Z,20.23
2018-07-25T05:42:11.298Z,20.27
2018-07-25T05:44:16.216Z,19.30
2018-07-25T05:46:23.325Z,19.63
2018-07-25T05:48:28.012Z,18.83
2018-07-25T05:50:32.780Z,19.37
2018-07-25T05:52:42.790Z,19.60
2018-07-25T05:54:49.792Z,18.57
2018-07-25T05:56:54.651Z,19.43
2018-07-25T05:58:59.989Z,19.20
2018-07-25T06:01:07.549Z,20.57
2018-07-25T06:03:13.379Z,18.60
2018-07-25T06:05:19.086Z,18.30
2018-07-25T06:07:23.721Z,18.27
2018-07-25T06:11:49.545Z,18.60
2018-07-25T06:13:54.170Z,19.23
2018-07-25T06:15:58.708Z,17.60
2018-07-25T06:18:08.479Z,18.43
2018-07-25T06:20:13.028Z,17.27
2018-07-25T06:22:17.635Z,16.90
2018-07-25T06:24:22.335Z,17.37
2018-07-25T06:26:28.015Z,18.30
2018-07-25T06:28:34.221Z,16.83
2018-07-25T06:30:38.858Z,15.47
2018-07-25T06:32:43.397Z,15.90
2018-07-25T06:34:48.843Z,18.20
2018-07-25T06:36:54.422Z,15.43
2018-07-25T06:38:59.028Z,15.37
2018-07-25T06:41:06.743Z,15.43
2018-07-25T06:43:11.342Z,15.13
2018-07-25T06:45:15.900Z,15.60
2018-07-25T06:47:20.485Z,15.60
2018-07-25T06:49:32.075Z,15.90
2018-07-25T06:51:37.029Z,14.80
2018-07-25T06:53:41.668Z,15.73
2018-07-25T06:55:46.050Z,14.73
2018-07-25T06:57:53.241Z,14.50
2018-07-25T06:59:58.981Z,14.97
2018-07-25T07:02:03.679Z,14.03
2018-07-25T07:04:08.846Z,14.77
2018-07-25T07:06:23.009Z,14.53
2018-07-25T07:08:27.715Z,13.53
2018-07-25T07:10:34.299Z,14.77
2018-07-25T07:12:38.891Z,14.03
2018-07-25T07:14:44.419Z,14.90
2018-07-25T07:16:51.911Z,12.93
2018-07-25T07:18:57.725Z,11.93
2018-07-25T07:21:02.453Z,11.33
2018-07-25T07:23:08.998Z,11.50
2018-07-25T07:25:27.055Z,10.60
2018-07-25T07:27:31.726Z,10.97
2018-07-25T07:29:37.191Z,11.40
2018-07-25T07:31:41.794Z,10.20
2018-07-25T07:36:15.865Z,8.73
2018-07-25T07:40:30.268Z,9.40
2018-07-25T07:42:34.612Z,10.03
2018-07-25T07:44:39.659Z,10.07
2018-07-25T07:46:52.970Z,9.23
2018-07-25T07:48:57.595Z,9.47
2018-07-25T07:51:03.248Z,9.97
2018-07-25T07:53:09.747Z,11.70
2018-07-25T07:55:14.360Z,9.73
2018-07-25T07:57:19.123Z,9.20
2018-07-25T07:59:25.675Z,9.20
2018-07-25T08:01:35.302Z,9.07
2018-07-25T08:03:40.039Z,8.80
2018-07-25T08:05:45.430Z,9.53
2018-07-25T08:08:04.216Z,11.03
2018-07-25T08:10:09.546Z,9.73
2018-07-25T08:12:14.337Z,9.67
2018-07-25T08:14:19.030Z,9.87
2018-07-25T08:16:26.818Z,9.63
2018-07-25T08:18:31.586Z,10.03
2018-07-25T08:20:36.536Z,9.37
2018-07-25T08:22:41.184Z,9.23
2018-07-25T08:24:46.008Z,10.50
2018-07-25T08:27:03.865Z,10.13
2018-07-25T08:29:08.674Z,10.10
2018-07-25T08:31:13.364Z,10.17
2018-07-25T08:33:18.190Z,10.13
2018-07-25T08:35:27.395Z,9.70
2018-07-25T08:37:32.023Z,8.37
2018-07-25T08:39:38.610Z,9.63
2018-07-25T08:41:43.367Z,9.50
2018-07-25T08:43:50.229Z,9.10
2018-07-25T08:45:54.955Z,9.50
2018-07-25T08:48:00.934Z,9.27
2018-07-25T08:50:09.713Z,9.03
2018-07-25T08:54:38.165Z,9.27
2018-07-25T08:56:42.864Z,8.60
2018-07-25T08:58:47.718Z,8.20
2018-07-25T09:00:52.478Z,9.13
2018-07-25T09:03:02.887Z,9.20
2018-07-25T09:05:07.673Z,8.80
2018-07-25T09:07:12.397Z,8.70
2018-07-25T09:09:16.876Z,9.30
2018-07-25T09:11:27.131Z,8.40
2018-07-25T09:13:33.232Z,9.07
2018-07-25T09:15:41.279Z,8.70
2018-07-25T09:17:46.004Z,8.30
2018-07-25T09:19:57.135Z,8.00
2018-07-25T09:22:01.847Z,7.50
2018-07-25T09:24:08.128Z,7.60
2018-07-25T09:26:12.707Z,8.43
2018-07-25T09:28:18.165Z,8.30
2018-07-25T09:30:23.176Z,7.30
2018-07-25T09:32:29.111Z,7.73
2018-07-25T09:34:33.758Z,7.20
2018-07-25T09:36:39.122Z,6.60
2018-07-25T09:38:44.775Z,6.27
2018-07-25T09:40:49.540Z,6.97
2018-07-25T09:42:56.092Z,6.23
2018-07-25T09:45:01.092Z,6.60
2018-07-25T09:47:11.728Z,5.93
2018-07-25T09:49:19.193Z,6.23
2018-07-25T09:51:24.710Z,6.67
2018-07-25T09:53:30.077Z,7.03
2018-07-25T09:55:39.480Z,6.63
2018-07-25T09:57:44.818Z,6.53
2018-07-25T09:59:50.569Z,6.70
2018-07-25T10:01:55.229Z,6.80
2018-07-25T10:04:02.175Z,6.50
2018-07-25T10:06:13.053Z,5.97
2018-07-25T10:08:22.695Z,6.70
2018-07-25T10:10:27.740Z,6.30
2018-07-25T10:12:39.451Z,7.10
2018-07-25T10:14:44.160Z,6.70
2018-07-25T10:16:55.245Z,6.70
2018-07-25T10:19:00.024Z,6.33
2018-07-25T10:21:04.881Z,6.17
2018-07-25T10:23:09.624Z,6.20
2018-07-25T10:25:13.943Z,6.20
2018-07-25T10:27:18.749Z,5.90
2018-07-25T10:29:25.109Z,6.63
2018-07-25T10:31:30.624Z,6.57
2018-07-25T10:33:46.897Z,5.97
2018-07-25T10:35:51.544Z,6.00
2018-07-25T10:37:56.295Z,6.37
2018-07-25T10:40:01.007Z,6.60
2018-07-25T10:42:13.427Z,6.40
2018-07-25T10:44:18.093Z,6.97
2018-07-25T10:46:22.953Z,6.73
2018-07-25T10:48:29.555Z,7.10
2018-07-25T10:50:40.970Z,6.77
2018-07-25T10:52:45.595Z,7.53
2018-07-25T10:54:50.372Z,6.33
2018-07-25T10:56:56.075Z,6.13
2018-07-25T10:59:07.276Z,6.00
2018-07-25T11:01:12.085Z,6.77
2018-07-25T11:03:16.832Z,6.27
2018-07-25T11:05:21.492Z,6.07
2018-07-25T11:07:43.690Z,6.47
2018-07-25T11:09:58.871Z,6.47
2018-07-25T11:12:19.346Z,5.93
2018-07-25T11:14:44.104Z,6.60
2018-07-25T11:16:49.299Z,7.20
2018-07-25T11:18:54.354Z,6.83
2018-07-25T11:20:59.024Z,6.80
2018-07-25T11:23:04.883Z,5.80
2018-07-25T11:25:30.999Z,6.33
2018-07-25T11:29:54.015Z,6.57
2018-07-25T11:31:59.278Z,6.03
2018-07-25T11:34:04.305Z,6.53
2018-07-25T11:36:17.248Z,6.23
2018-07-25T11:41:12.584Z,6.70
2018-07-25T11:43:51.986Z,7.00
2018-07-25T11:46:02.380Z,6.67
2018-07-25T11:48:10.652Z,6.90
2018-07-25T11:50:15.741Z,6.17
2018-07-25T11:52:20.459Z,6.30
2018-07-25T11:54:26.084Z,5.80
2018-07-25T11:56:49.057Z,6.43
2018-07-25T11:59:08.565Z,6.37
2018-07-25T12:03:50.566Z,6.50
2018-07-25T12:05:59.055Z,6.53
2018-07-25T12:08:03.725Z,7.00
2018-07-25T12:10:10.067Z,6.60
2018-07-25T12:12:15.956Z,6.97
2018-07-25T12:14:29.765Z,6.73
2018-07-25T12:16:35.486Z,6.10
2018-07-25T12:18:40.332Z,6.87
2018-07-25T12:20:45.197Z,6.87
2018-07-25T12:22:50.995Z,6.40
2018-07-25T12:24:55.652Z,7.00
2018-07-25T12:27:02.650Z,6.43
2018-07-25T12:29:09.203Z,6.80
2018-07-25T12:31:14.007Z,7.27
2018-07-25T12:33:18.804Z,6.23
2018-07-25T12:35:26.679Z,6.03
2018-07-25T12:37:36.190Z,7.60
2018-07-25T12:39:42.170Z,7.63
2018-07-25T12:41:58.741Z,6.63
2018-07-25T12:44:03.675Z,6.60
2018-07-25T12:46:10.466Z,6.50
2018-07-25T12:48:15.122Z,6.13
2018-07-25T12:50:23.896Z,6.77
2018-07-25T12:52:35.840Z,6.20
2018-07-25T12:54:43.275Z,6.30
2018-07-25T12:56:48.096Z,6.60
2018-07-25T12:58:53.562Z,6.37
2018-07-25T13:01:01.764Z,6.13
2018-07-25T13:06:46.256Z,6.33
2018-07-25T13:08:50.943Z,7.30
2018-07-25T13:10:55.983Z,6.73
2018-07-25T13:13:00.861Z,6.93
2018-07-25T13:15:08.528Z,6.53
2018-07-25T13:17:13.312Z,6.67
2018-07-25T13:19:20.192Z,6.70
2018-07-25T13:21:25.595Z,6.00
2018-07-25T13:23:38.242Z,7.70
2018-07-25T13:25:42.945Z,7.47
2018-07-25T13:27:47.562Z,6.97
2018-07-25T13:29:52.272Z,6.20
2018-07-25T13:32:04.712Z,6.33
2018-07-25T13:34:09.364Z,6.40
2018-07-25T13:36:14.196Z,6.90
2018-07-25T13:38:19.817Z,5.90
2018-07-25T13:40:32.394Z,5.67
2018-07-25T13:42:37.095Z,6.33
2018-07-25T13:44:41.830Z,7.30
2018-07-25T13:46:46.700Z,6.87
2018-07-25T13:49:08.498Z,7.10
2018-07-25T13:51:13.169Z,6.50
2018-07-25T13:53:20.642Z,6.67
2018-07-25T13:55:25.355Z,6.77
2018-07-25T13:57:32.224Z,6.77
2018-07-25T13:59:40.234Z,6.00
2018-07-25T14:01:45.214Z,6.50
2018-07-25T14:03:50.007Z,6.07
2018-07-25T14:05:58.799Z,5.83
2018-07-25T14:08:04.332Z,6.40
2018-07-25T14:10:09.402Z,5.90
2018-07-25T14:12:14.092Z,5.80
2018-07-25T14:14:21.831Z,5.73
2018-07-25T14:16:27.157Z,6.40
2018-07-25T14:18:34.931Z,6.40
2018-07-25T14:20:39.863Z,5.70
2018-07-25T14:22:45.849Z,5.77
2018-07-25T14:24:52.034Z,5.47
2018-07-25T14:26:58.709Z,6.33
2018-07-25T14:29:03.688Z,6.23
2018-07-25T14:31:09.014Z,6.23
2018-07-25T14:33:13.869Z,6.20
2018-07-25T14:35:19.666Z,6.30
2018-07-25T14:37:24.288Z,6.20
2018-07-25T14:39:29.081Z,6.43
2018-07-25T14:41:33.799Z,6.90
2018-07-25T14:43:39.765Z,6.03
2018-07-25T14:45:47.411Z,6.77
2018-07-25T14:47:52.177Z,6.47
2018-07-25T14:49:57.110Z,6.23
2018-07-25T14:52:02.710Z,6.00
2018-07-25T14:54:09.722Z,5.63
2018-07-25T14:56:14.410Z,6.07
2018-07-25T14:58:19.022Z,5.93
2018-07-25T15:00:25.993Z,5.60
2018-07-25T15:02:32.420Z,6.40
2018-07-25T15:04:38.171Z,6.17
2018-07-25T15:06:42.800Z,6.40
2018-07-25T15:08:47.721Z,6.23
2018-07-25T15:10:52.370Z,6.30
2018-07-25T15:12:57.664Z,7.07
2018-07-25T15:15:02.570Z,6.30
2018-07-25T15:17:09.246Z,6.40
2018-07-25T15:19:13.872Z,6.50
2018-07-25T15:21:19.040Z,6.43
2018-07-25T15:23:36.599Z,5.73
2018-07-25T15:25:41.861Z,6.70
2018-07-25T15:27:46.626Z,6.33
2018-07-25T15:29:51.409Z,6.50
2018-07-25T15:31:57.075Z,5.93
2018-07-25T15:34:09.170Z,6.03
2018-07-25T15:36:22.499Z,10.27
2018-07-25T15:38:29.526Z,8.13
2018-07-25T15:40:34.360Z,8.50
2018-07-25T15:42:39.361Z,7.63
2018-07-25T15:44:45.571Z,6.70
2018-07-25T15:46:51.842Z,6.90
2018-07-25T15:48:56.882Z,9.50
2018-07-25T15:51:03.729Z,7.20
2018-07-25T15:53:09.668Z,6.50
2018-07-25T15:55:14.326Z,6.60
2018-07-25T15:57:18.984Z,8.27
2018-07-25T15:59:31.673Z,7.20
2018-07-25T16:01:37.635Z,7.40
2018-07-25T16:03:42.693Z,6.60
2018-07-25T16:05:47.373Z,6.70
2018-07-25T16:07:56.937Z,5.57
2018-07-25T16:10:03.055Z,5.77
2018-07-25T16:12:11.202Z,5.93
2018-07-25T16:14:16.265Z,6.23
2018-07-25T16:16:23.591Z,5.87
2018-07-25T16:18:47.911Z,6.23
2018-07-25T16:20:52.921Z,6.10
2018-07-25T16:22:58.753Z,6.40
2018-07-25T16:25:03.804Z,6.20
2018-07-25T16:27:10.771Z,8.83
2018-07-25T16:29:15.505Z,6.83
2018-07-25T16:31:20.215Z,6.33
2018-07-25T16:33:24.818Z,6.37
2018-07-25T16:35:37.592Z,6.63
2018-07-25T16:37:42.292Z,6.43
2018-07-25T16:39:47.063Z,6.70
2018-07-25T16:41:51.692Z,7.23
2018-07-25T16:43:56.448Z,5.90
2018-07-25T16:46:02.509Z,6.50
2018-07-25T16:48:07.541Z,6.47
2018-07-25T16:50:12.232Z,6.40
2018-07-25T16:52:17.234Z,6.07
2018-07-25T16:54:22.734Z,6.20
2018-07-25T16:56:27.470Z,6.43
2018-07-25T16:58:32.921Z,6.47
2018-07-25T17:00:39.864Z,6.33
2018-07-25T17:02:44.532Z,7.40
2018-07-25T17:04:49.163Z,6.57
2018-07-25T17:06:54.975Z,6.20
2018-07-25T17:09:07.959Z,7.30
2018-07-25T17:11:12.634Z,6.53
2018-07-25T17:13:17.415Z,5.30
2018-07-25T17:15:33.667Z,6.03
2018-07-25T17:17:38.413Z,5.93
2018-07-25T17:19:44.401Z,6.50
2018-07-25T17:21:49.128Z,6.00
2018-07-25T17:23:53.946Z,7.50
2018-07-25T17:26:00.245Z,6.70
2018-07-25T17:28:06.565Z,5.90
2018-07-25T17:30:11.246Z,6.20
2018-07-25T17:32:18.267Z,5.83
2018-07-25T17:34:40.931Z,6.20
2018-07-25T17:36:48.530Z,6.10
2018-07-25T17:38:53.246Z,5.70
2018-07-25T17:40:58.631Z,6.27
2018-07-25T17:43:03.451Z,6.00
2018-07-25T17:45:13.504Z,6.20
2018-07-25T17:47:18.486Z,6.57
2018-07-25T17:49:23.269Z,6.40
2018-07-25T17:51:28.119Z,5.80
2018-07-25T17:53:39.525Z,7.07
2018-07-25T17:55:44.213Z,6.07
2018-07-25T17:57:50.077Z,5.80
2018-07-25T17:59:54.342Z,6.03
2018-07-25T18:02:06.862Z,6.73
2018-07-25T18:04:11.458Z,6.17
2018-07-25T18:06:16.317Z,5.83
2018-07-25T18:08:21.014Z,6.40
2018-07-25T18:10:33.014Z,5.80
2018-07-25T18:12:37.736Z,6.20
2018-07-25T18:14:42.492Z,7.00
2018-07-25T18:16:47.138Z,5.63
2018-07-25T18:18:52.707Z,6.43
2018-07-25T18:20:57.286Z,5.30
2018-07-25T18:23:02.221Z,5.83
2018-07-25T18:25:07.658Z,5.60
2018-07-25T18:27:12.641Z,6.77
2018-07-25T18:29:17.331Z,6.67
2018-07-25T18:31:22.150Z,6.67
2018-07-25T18:33:28.388Z,6.50
2018-07-25T18:35:37.267Z,5.90
2018-07-25T18:37:41.886Z,5.80
2018-07-25T18:39:46.631Z,6.57
2018-07-25T18:41:53.222Z,6.43
2018-07-25T18:44:00.585Z,6.90
2018-07-25T18:46:05.326Z,7.20
2018-07-25T18:48:10.577Z,6.63
2018-07-25T18:50:15.266Z,7.10
2018-07-25T18:52:20.080Z,6.97
2018-07-25T18:54:24.913Z,6.60
2018-07-25T18:56:29.672Z,6.47
2018-07-25T18:58:35.360Z,7.40
2018-07-25T19:00:40.197Z,8.20
2018-07-25T19:02:44.910Z,8.20
2018-07-25T19:05:01.381Z,8.13
2018-07-25T19:07:07.951Z,7.13
2018-07-25T19:09:15.190Z,7.90
2018-07-25T19:11:22.407Z,7.40
2018-07-25T19:13:36.213Z,8.33
2018-07-25T19:15:48.272Z,10.23
2018-07-25T19:17:53.444Z,9.50
2018-07-25T19:20:01.196Z,9.40
2018-07-25T19:22:06.503Z,8.30
2018-07-25T19:24:18.621Z,8.00
2018-07-25T19:26:24.149Z,9.67
2018-07-25T19:28:35.247Z,9.70
2018-07-25T19:30:40.205Z,10.80
2018-07-25T19:32:46.038Z,12.20
2018-07-25T19:34:50.768Z,11.30
2018-07-25T19:37:02.704Z,10.47
2018-07-25T19:39:10.659Z,8.70
2018-07-25T19:41:15.748Z,8.47
2018-07-25T19:43:20.307Z,7.30
2018-07-25T19:45:26.341Z,8.60
2018-07-25T19:47:31.123Z,7.97
2018-07-25T19:49:39.748Z,7.83
2018-07-25T19:51:44.409Z,8.53
2018-07-25T19:53:49.399Z,7.33
2018-07-25T19:55:54.022Z,8.20
2018-07-25T19:57:59.655Z,7.97
2018-07-25T20:00:04.376Z,9.50
2018-07-25T20:02:11.052Z,9.30
2018-07-25T20:04:15.610Z,9.97
2018-07-25T20:06:22.276Z,9.67
2018-07-25T20:08:26.943Z,9.77
2018-07-25T20:10:36.394Z,10.37
2018-07-25T20:12:42.456Z,17.77
2018-07-25T20:14:52.220Z,11.90
2018-07-25T20:16:57.016Z,10.00
2018-07-25T20:21:11.645Z,9.13
2018-07-25T20:23:16.803Z,8.27
2018-07-25T20:25:37.848Z,8.07
2018-07-25T20:27:43.057Z,7.73
2018-07-25T20:29:47.819Z,8.60
2018-07-25T20:31:54.531Z,7.97
2018-07-25T20:33:59.177Z,9.40
2018-07-25T20:36:03.812Z,8.90
2018-07-25T20:38:09.300Z,8.47
2018-07-25T20:40:17.482Z,9.80
2018-07-25T20:42:22.536Z,9.47
2018-07-25T20:44:27.199Z,9.47
2018-07-25T20:46:33.076Z,9.23
2018-07-25T20:48:40.842Z,9.57
2018-07-25T20:50:52.367Z,10.30
2018-07-25T20:53:02.154Z,8.40
2018-07-25T20:55:10.720Z,9.00
2018-07-25T20:57:22.741Z,9.07
2018-07-25T20:59:34.035Z,8.70
2018-07-25T21:01:43.123Z,8.00
2018-07-25T21:03:53.419Z,8.83
2018-07-25T21:06:05.080Z,8.83
2018-07-25T21:08:13.495Z,7.87
2018-07-25T21:10:28.054Z,9.10
2018-07-25T21:12:36.753Z,8.80
2018-07-25T21:14:45.405Z,8.40
2018-07-25T21:16:53.971Z,9.23
2018-07-25T21:19:11.027Z,8.80
2018-07-25T21:21:15.845Z,9.10
2018-07-25T21:23:24.524Z,9.13
2018-07-25T21:25:29.168Z,9.27
2018-07-25T21:27:34.340Z,8.80
2018-07-25T21:31:53.599Z,8.63
2018-07-25T21:33:58.512Z,8.30
2018-07-25T21:36:03.320Z,9.03
2018-07-25T21:38:10.043Z,9.60
2018-07-25T21:40:14.696Z,9.53
2018-07-25T21:42:19.328Z,10.90
2018-07-25T21:44:24.675Z,10.23
2018-07-25T21:46:30.833Z,10.20
2018-07-25T21:48:35.388Z,10.20
2018-07-25T21:50:41.059Z,9.30
2018-07-25T21:52:45.623Z,9.57
2018-07-25T21:54:50.881Z,8.80
2018-07-25T21:56:55.314Z,8.87
2018-07-25T21:59:13.991Z,8.73
2018-07-25T22:01:19.209Z,9.47
2018-07-25T22:03:24.878Z,10.77
2018-07-25T22:05:29.510Z,10.40
2018-07-25T22:07:38.225Z,9.97
2018-07-25T22:09:42.792Z,8.70
2018-07-25T22:11:47.390Z,9.73
2018-07-25T22:13:54.802Z,9.47
2018-07-25T22:16:00.173Z,8.73
2018-07-25T22:18:05.727Z,9.10
2018-07-25T22:20:20.689Z,9.90
2018-07-25T22:22:25.327Z,9.80
2018-07-25T22:24:30.079Z,9.73
2018-07-25T22:26:34.740Z,9.70
2018-07-25T22:28:45.240Z,9.10
2018-07-25T22:30:49.817Z,8.97
2018-07-25T22:32:55.504Z,9.67
2018-07-25T22:35:02.365Z,8.60
2018-07-25T22:37:10.972Z,9.70
2018-07-25T22:39:15.553Z,10.47
2018-07-25T22:41:20.147Z,9.50
2018-07-25T22:43:24.798Z,10.10
2018-07-25T22:45:34.440Z,10.33
2018-07-25T22:47:39.115Z,9.83
2018-07-25T22:49:43.804Z,9.10
2018-07-25T22:51:48.399Z,10.37
2018-07-25T22:53:53.090Z,9.40
2018-07-25T22:55:57.625Z,10.37
2018-07-25T22:58:02.299Z,9.90
2018-07-25T23:00:09.784Z,9.87
2018-07-25T23:02:14.637Z,10.80
2018-07-25T23:04:20.244Z,10.80
2018-07-25T23:06:24.940Z,10.10
2018-07-25T23:08:30.590Z,9.63
2018-07-25T23:10:35.288Z,10.43
2018-07-25T23:12:40.143Z,10.30
2018-07-25T23:14:44.803Z,10.73
2018-07-25T23:16:56.924Z,9.63
2018-07-25T23:19:01.463Z,10.70
2018-07-25T23:21:07.018Z,10.50
2018-07-25T23:23:11.656Z,10.70
2018-07-25T23:27:31.833Z,11.13
2018-07-25T23:29:36.673Z,10.80
2018-07-25T23:31:41.225Z,10.60
2018-07-25T23:33:46.052Z,10.73
2018-07-25T23:35:50.673Z,10.90
2018-07-25T23:37:55.575Z,10.97
2018-07-25T23:40:00.149Z,10.43
2018-07-25T23:42:05.770Z,10.10
2018-07-25T23:44:10.335Z,10.00
2018-07-25T23:46:14.924Z,10.67
2018-07-25T23:48:20.726Z,10.33
2018-07-25T23:50:31.605Z,10.57
2018-07-25T23:52:36.189Z,9.67
2018-07-25T23:54:40.812Z,10.00
2018-07-25T23:56:45.367Z,10.73
2018-07-25T23:58:50.648Z,10.87
